Latest Weather Observations for Temora

IDN60801

Issued at 11:03 pm EST Wednesday 27 July 2016 (issued every 30 minutes, with the page automatically refreshed every 10 minutes)

About weather observations | Map of weather stations | Latest weather observations for NSW | Other Formats
Station Details ID: 073151 Name: TEMORA AIRPORT Lat: -34.43 Lon: 147.51 Height: 280.5 m
Data from the previous 72 hours. | See also: Recent months at Temora
Date/Time
EST
Temp
°C
App
Temp
°C
Dew
Point
°C
Rel
Hum
%
Delta-T
°C
Wind Press
QNH
hPa
Press
MSL
hPa
Rain since
9am
mm
Dir  Spd
km/h
Gust
km/h
Spd
kts
Gust
kts
27/11:00pm 8.5 5.4 7.3 92 0.6 WSW 13 20 7 11 1024.6 1025.2 0.6
27/10:30pm 8.6 5.1 7.4 92 0.6 WSW 15 20 8 11 1024.2 1024.7 0.6
27/10:00pm 8.6 5.2 7.5 93 0.5 WSW 15 19 8 10 1023.9 1024.4 0.6
27/09:30pm 8.6 5.6 7.8 95 0.4 W 13 19 7 10 1023.7 1024.2 0.6
27/09:00pm 8.6 5.2 7.8 95 0.4 W 15 20 8 11 1023.4 1023.9 0.6
27/08:30pm 8.5 5.5 7.9 96 0.3 WNW 13 19 7 10 1023.4 1023.9 0.6
27/08:00pm 8.4 5.5 8.0 97 0.2 W 13 19 7 10 1023.2 1023.7 0.6
27/07:30pm 7.9 5.1 7.1 95 0.4 W 11 13 6 7 1022.9 1023.4 0.6
27/07:00pm 8.8 5.5 8.0 95 0.4 W 15 22 8 12 1022.4 1022.9 0.6
27/06:30pm 9.0 6.8 7.9 93 0.5 WSW 9 13 5 7 1021.8 1022.4 0.6
27/06:00pm 9.1 6.0 7.4 89 0.8 W 13 17 7 9 1021.3 1021.8 0.6
27/05:30pm 9.0 5.1 7.3 89 0.8 W 17 20 9 11 1020.8 1021.3 0.6
27/05:00pm 9.1 4.6 7.1 87 1.0 WNW 20 30 11 16 1020.6 1021.1 0.6
27/04:30pm 10.4 6.5 7.1 80 1.6 W 17 26 9 14 1019.9 1020.4 0.6
27/04:00pm 10.3 6.0 7.2 81 1.5 W 19 26 10 14 1019.2 1019.7 0.6
27/03:30pm 10.4 5.5 7.1 80 1.6 W 22 26 12 14 1018.9 1019.4 0.6
27/03:00pm 10.0 6.1 6.9 81 1.5 W 17 26 9 14 1018.6 1019.0 0.6
27/02:30pm 10.4 5.6 7.3 81 1.5 W 22 32 12 17 1018.1 1018.6 0.6
27/02:00pm 9.9 6.3 8.5 91 0.7 W 17 26 9 14 1017.8 1018.3 0.6
27/01:30pm 9.8 5.4 7.4 85 1.2 W 20 28 11 15 1017.6 1018.1 0.4
27/01:00pm 10.4 5.3 7.6 83 1.4 W 24 32 13 17 1017.5 1018.0 0.4
27/12:30pm 9.4 3.9 7.5 88 0.9 W 26 35 14 19 1017.7 1018.2 0.4
27/12:00pm 9.9 5.3 8.0 88 0.9 W 22 33 12 18 1017.5 1018.0 0.4
27/11:30am 9.3 4.2 7.7 90 0.8 WSW 24 39 13 21 1017.4 1017.9 0.4
27/11:00am 8.4 3.3 7.5 94 0.4 WSW 24 33 13 18 1017.2 1017.7 0.4
27/10:30am 9.2 3.7 7.5 89 0.8 W 26 37 14 20 1016.7 1017.2 0.0
27/10:00am 8.7 3.2 7.6 93 0.5 W 26 39 14 21 1016.4 1016.9 0.0
27/09:30am 8.7 4.0 7.6 93 0.5 W 22 33 12 18 1015.8 1016.3 0.0
27/09:00am 8.6 3.8 7.4 92 0.6 W 22 35 12 19 1015.6 1016.1 3.0
27/08:30am 8.4 2.9 7.6 95 0.4 W 26 39 14 21 1014.9 1015.3 3.0
27/08:00am 8.1 3.3 7.3 95 0.4 WNW 22 35 12 19 1014.6 1015.1 2.6
27/07:30am 8.6 2.9 6.7 88 0.9 WNW 26 35 14 19 1014.0 1014.5 2.6
27/07:00am 8.4 2.7 6.7 89 0.8 W 26 39 14 21 1013.5 1014.0 2.6
27/06:30am 8.7 3.0 6.8 88 0.9 WNW 26 43 14 23 1013.1 1013.6 2.6
27/06:00am 8.4 4.2 7.3 93 0.5 WNW 19 30 10 16 1012.8 1013.3 2.6
27/05:30am 8.4 3.3 7.5 94 0.4 WNW 24 32 13 17 1012.2 1012.6 2.6
27/05:00am 8.1 3.0 7.7 97 0.2 NW 24 35 13 19 1011.7 1012.1 2.4
27/04:30am 8.4 2.9 7.5 94 0.4 NW 26 35 14 19 1011.7 1012.1 1.8
27/04:00am 8.3 3.5 7.2 93 0.5 NNW 22 30 12 16 1011.7 1012.1 1.4
27/03:30am 8.6 3.3 6.9 89 0.8 NNW 24 32 13 17 1011.6 1012.0 0.4
27/03:00am 8.7 3.1 7.0 89 0.8 N 26 33 14 18 1011.6 1012.0 0.4
27/02:30am 8.4 4.5 7.0 91 0.7 N 17 20 9 11 1012.1 1012.5 0.4
27/02:00am 7.2 4.6 6.3 94 0.4 NNE 9 13 5 7 1012.6 1013.1 0.4
27/01:30am 7.0 3.6 5.9 93 0.5 N 13 19 7 10 1012.8 1013.3 0.4
27/01:00am 7.5 3.9 6.9 96 0.3 NNE 15 17 8 9 1013.3 1013.8 0.4
27/12:30am 6.9 3.6 6.2 95 0.3 NNE 13 15 7 8 1013.5 1014.0 0.4
27/12:00am 7.2 3.8 6.1 93 0.5 N 13 17 7 9 1013.9 1014.4 0.4
 
Date/Time
EST
Temp
°C
App
Temp
°C
Dew
Point
°C
Rel
Hum
%
Delta-T
°C
Wind Press
QNH
hPa
Press
MSL
hPa
Rain since
9am
mm
Dir  Spd
km/h
Gust
km/h
Spd
kts
Gust
kts
26/11:30pm 8.1 4.8 6.4 89 0.8 N 13 19 7 10 1014.1 1014.6 0.4
26/11:00pm 8.0 5.2 6.9 93 0.5 N 11 13 6 7 1014.6 1015.1 0.4
26/10:30pm 7.8 4.1 6.4 91 0.7 N 15 20 8 11 1014.7 1015.2 0.4
26/10:00pm 8.2 5.4 7.0 92 0.6 NNE 11 13 6 7 1015.0 1015.4 0.4
26/09:30pm 8.0 6.0 7.1 94 0.4 N 7 9 4 5 1015.3 1015.7 0.4
26/09:00pm 8.0 5.6 7.2 95 0.4 NNE 9 11 5 6 1015.7 1016.2 0.4
26/08:30pm 7.7 5.6 6.8 94 0.4 N 7 9 4 5 1015.8 1016.3 0.4
26/08:00pm 7.9 5.5 6.8 93 0.5 NNW 9 9 5 5 1015.8 1016.3 0.4
26/07:30pm 8.0 5.5 6.6 91 0.7 NNW 9 13 5 7 1015.8 1016.3 0.4
26/07:00pm 8.5 5.6 6.6 88 0.9 WNW 11 13 6 7 1016.1 1016.6 0.0
26/06:30pm 8.6 5.6 5.9 83 1.2 NNW 11 13 6 7 1015.5 1015.9 0.0
26/06:00pm 9.0 5.5 5.4 78 1.7 NNW 13 17 7 9 1015.4 1015.8 0.0
26/05:30pm 8.9 5.2 4.7 75 1.9 NNW 13 17 7 9 1015.3 1015.7 0.0
26/05:00pm 10.0 6.1 5.2 72 2.2 NW 15 19 8 10 1015.3 1015.7 0.0
26/04:30pm 10.6 7.3 4.7 67 2.7 WNW 11 17 6 9 1015.2 1015.6 0.0
26/04:00pm 10.4 5.9 4.3 66 2.8 WNW 17 20 9 11 1015.4 1015.8 0.0
26/03:30pm 10.9 6.0 4.1 63 3.1 WNW 19 28 10 15 1015.5 1015.9 0.0
26/03:00pm 11.0 6.5 4.0 62 3.2 WNW 17 26 9 14 1015.8 1016.3 0.0
26/02:30pm 10.6 5.6 3.6 62 3.1 WNW 19 26 10 14 1016.0 1016.5 0.0
26/02:00pm 11.4 6.9 4.2 61 3.3 W 17 22 9 12 1016.1 1016.6 0.0
26/01:30pm 11.3 6.9 4.5 63 3.1 WNW 17 24 9 13 1016.5 1017.0 0.0
26/01:00pm 10.3 5.4 4.0 65 2.8 WNW 19 24 10 13 1017.0 1017.5 0.0
26/12:30pm 10.7 5.7 3.7 62 3.1 W 19 26 10 14 1017.3 1017.8 0.0
26/12:00pm 10.6 5.7 4.1 64 2.9 WNW 19 28 10 15 1017.6 1018.1 0.0
26/11:30am 10.2 5.4 4.6 68 2.5 WNW 19 26 10 14 1018.1 1018.6 0.0
26/11:00am 9.7 5.3 4.7 71 2.3 W 17 22 9 12 1018.6 1019.0 0.0
26/10:30am 9.0 4.7 5.4 78 1.7 W 17 22 9 12 1019.0 1019.5 0.0
26/10:00am 9.2 5.0 5.8 79 1.6 WNW 17 20 9 11 1019.2 1019.7 0.0
26/09:30am 8.5 4.4 6.3 86 1.0 W 17 22 9 12 1019.3 1019.8 0.0
26/09:00am 8.2 5.0 6.7 90 0.7 WNW 13 20 7 11 1019.2 1019.7 0.8
26/08:30am 7.0 4.4 6.3 95 0.3 NW 9 11 5 6 1019.2 1019.7 0.8
26/08:00am 4.4 1.8 4.0 97 0.2 WNW 7 11 4 6 1018.8 1019.3 0.8
26/07:30am 3.8 1.2 3.1 95 0.3 WNW 6 7 3 4 1018.7 1019.2 0.8
26/07:00am 4.7 1.7 4.1 96 0.3 NNW 9 11 5 6 1018.2 1018.7 0.8
26/06:30am 4.7 2.0 3.5 92 0.5 NW 7 9 4 5 1017.8 1018.3 0.8
26/06:00am 5.7 2.4 4.3 91 0.6 W 11 17 6 9 1017.3 1017.8 0.8
26/05:30am 6.7 3.5 4.9 88 0.8 W 11 17 6 9 1017.0 1017.5 0.8
26/05:00am 7.2 3.4 5.8 91 0.6 WNW 15 20 8 11 1016.6 1017.1 0.8
26/04:30am 7.4 4.2 6.7 95 0.3 W 13 17 7 9 1016.3 1016.8 0.8
26/04:00am 7.6 4.0 6.7 94 0.4 W 15 22 8 12 1016.1 1016.6 0.6
26/03:30am 8.0 3.5 6.0 87 0.9 WNW 19 26 10 14 1015.7 1016.2 0.6
26/03:00am 8.0 3.8 5.5 84 1.1 NW 17 20 9 11 1015.7 1016.2 0.6
26/02:30am 7.5 3.7 5.6 88 0.9 NW 15 24 8 13 1015.5 1015.9 0.6
26/02:00am 7.2 2.4 5.7 90 0.7 NNW 20 28 11 15 1015.6 1016.1 0.6
26/01:30am 7.1 2.9 5.6 90 0.7 NNW 17 24 9 13 1015.5 1015.9 0.4
26/01:00am 7.6 2.4 5.4 86 1.0 NNW 22 33 12 18 1015.3 1015.7 0.4
26/12:30am 7.8 2.2 5.4 85 1.1 NNW 24 33 13 18 1015.2 1015.6 0.4
26/12:00am 7.8 2.7 5.8 87 0.9 N 22 28 12 15 1015.4 1015.8 0.4
 
Date/Time
EST
Temp
°C
App
Temp
°C
Dew
Point
°C
Rel
Hum
%
Delta-T
°C
Wind Press
QNH
hPa
Press
MSL
hPa
Rain since
9am
mm
Dir  Spd
km/h
Gust
km/h
Spd
kts
Gust
kts
25/11:30pm 7.7 3.0 6.0 89 0.8 N 20 24 11 13 1015.6 1016.1 0.4
25/11:00pm 6.9 2.1 5.7 92 0.5 N 20 28 11 15 1015.6 1016.1 0.4
25/10:30pm 6.5 2.3 5.9 96 0.3 N 17 20 9 11 1015.8 1016.3 0.4
25/10:00pm 6.3 2.9 5.9 97 0.2 N 13 17 7 9 1016.3 1016.8 0.4
25/09:30pm 6.2 2.7 5.5 95 0.3 N 13 19 7 10 1016.5 1017.0 0.4
25/09:00pm 6.9 3.5 5.8 93 0.5 N 13 17 7 9 1016.7 1017.2 0.4
25/08:30pm 7.4 4.1 6.5 94 0.4 N 13 19 7 10 1016.6 1017.1 0.4
25/08:00pm 7.0 3.3 6.1 94 0.4 N 15 17 8 9 1016.4 1016.9 0.4
25/07:30pm 7.2 3.1 6.0 92 0.5 N 17 19 9 10 1016.3 1016.8 0.4
25/07:00pm 7.5 4.2 6.3 92 0.6 N 13 17 7 9 1016.1 1016.6 0.4
25/06:30pm 7.2 3.8 6.0 92 0.5 N 13 17 7 9 1015.7 1016.2 0.4
25/06:00pm 7.5 4.1 6.1 91 0.6 N 13 17 7 9 1015.2 1015.6 0.4
25/05:30pm 7.7 3.6 6.3 91 0.6 NNW 17 24 9 13 1014.9 1015.3 0.4
25/05:00pm 8.5 4.1 6.5 87 0.9 NNW 19 24 10 13 1014.6 1015.1 0.4
25/04:30pm 9.1 4.6 6.9 86 1.0 NW 20 28 11 15 1015.0 1015.4 0.4
25/04:00pm 8.8 4.0 7.4 91 0.7 NW 22 32 12 17 1015.0 1015.4 0.4
25/03:30pm 9.2 4.6 8.1 93 0.5 NW 22 30 12 16 1015.1 1015.5 0.4
25/03:00pm 9.4 4.3 7.5 88 0.9 NW 24 30 13 16 1015.3 1015.7 0.4
25/02:30pm 9.4 5.2 7.5 88 0.9 NW 19 24 10 13 1015.3 1015.7 0.4
25/02:00pm 9.4 5.1 7.7 89 0.8 NW 20 28 11 15 1015.1 1015.5 0.4
25/01:30pm 9.4 5.1 7.8 90 0.8 WNW 20 30 11 16 1015.1 1015.5 0.4
25/01:00pm 9.3 4.6 7.9 91 0.7 NW 22 30 12 16 1015.5 1015.9 0.4
25/12:30pm 8.9 4.3 8.0 94 0.4 NW 22 32 12 17 1015.7 1016.2 0.2
25/12:00pm 8.5 4.7 7.6 94 0.4 NW 17 20 9 11 1016.0 1016.5 0.2
25/11:30am 8.5 4.3 7.6 94 0.4 NW 19 22 10 12 1016.2 1016.7 0.2
25/11:00am 8.9 4.5 7.4 90 0.7 NW 20 26 11 14 1016.4 1016.9 0.2
25/10:30am 8.0 4.1 6.9 93 0.5 NW 17 26 9 14 1016.4 1016.9 0.2
25/10:00am 7.9 4.0 7.0 94 0.4 WNW 17 22 9 12 1016.3 1016.8 0.2
25/09:30am 7.8 4.1 6.3 90 0.7 WNW 15 20 8 11 1016.2 1016.7 0.0
25/09:00am 7.6 3.1 5.9 89 0.8 WNW 19 26 10 14 1015.7 1016.2 2.8
25/08:30am 7.3 2.7 5.8 90 0.7 WNW 19 24 10 13 1015.4 1015.8 2.8
25/08:00am 7.1 2.8 5.4 89 0.8 WNW 17 26 9 14 1014.9 1015.3 2.8
25/07:30am 6.8 1.5 5.1 89 0.8 WNW 22 33 12 18 1014.2 1014.7 2.8
25/07:00am 6.8 1.5 5.0 88 0.8 WNW 22 35 12 19 1013.8 1014.3 2.8
25/06:30am 6.8 0.7 5.0 88 0.8 WNW 26 41 14 22 1013.4 1013.9 2.8
25/06:00am 6.7 1.4 4.9 88 0.8 WNW 22 30 12 16 1013.0 1013.5 2.8
25/05:30am 6.7 1.3 4.7 87 0.9 WNW 22 30 12 16 1012.7 1013.2 2.8
25/05:00am 6.7 0.7 5.2 90 0.7 WNW 26 39 14 21 1012.2 1012.6 2.8
25/04:30am 6.7 1.4 5.0 89 0.8 WNW 22 32 12 17 1012.0 1012.4 2.8
25/04:00am 6.4 2.0 5.0 91 0.6 NW 17 26 9 14 1011.8 1012.2 2.6
25/03:30am 6.1 1.8 5.1 93 0.4 NNW 17 20 9 11 1011.8 1012.2 2.6
25/03:00am 6.1 1.8 5.1 93 0.4 NNW 17 24 9 13 1011.8 1012.2 2.6
25/02:30am 5.8 2.2 5.2 96 0.3 NNW 13 17 7 9 1012.0 1012.4 2.6
25/02:00am 4.4 1.3 3.8 96 0.3 N 9 11 5 6 1012.2 1012.6 2.6
25/01:30am 4.6 1.1 3.7 94 0.4 NNW 11 13 6 7 1012.2 1012.6 2.6
25/01:00am 5.6 1.9 4.6 93 0.4 NW 13 17 7 9 1012.1 1012.5 2.6
25/12:30am 5.9 2.2 4.7 92 0.5 WNW 13 20 7 11 1012.2 1012.6 2.6
25/12:00am 6.3 1.9 4.9 91 0.6 WNW 17 24 9 13 1012.2 1012.6 2.6
 
Date/Time
EST
Temp
°C
App
Temp
°C
Dew
Point
°C
Rel
Hum
%
Delta-T
°C
Wind Press
QNH
hPa
Press
MSL
hPa
Rain since
9am
mm
Dir  Spd
km/h
Gust
km/h
Spd
kts
Gust
kts
24/11:30pm 6.7 1.8 5.3 91 0.6 WNW 20 28 11 15 1012.3 1012.7 2.6

Other Formats:

Comma delimited format used in spreadsheet applications
http://www.bom.gov.au/fwo/IDN60801/IDN60801.95722.axf

JavaScript Object Notation format (JSON) in row-major order
http://www.bom.gov.au/fwo/IDN60801/IDN60801.95722.json